Time;durP1;ratioP1;P1;durP2;ratioP2;P2;SDS_P1;SDS_P2;PMS_P1;PMS_P2;Temp;Humidity;BMP_temperature;BMP_pressure;BME280_temperature;BME280_humidity;BME280_pressure;Samples;Min_cycle;Max_cycle;Signal;HPM_P1;HPM_P2
2021/04/03 00:00:30;;;;;;;14.60;12.63;;;;;;;;;;5016794;28;20493;-94
2021/04/03 00:02:56;;;;;;;13.70;11.87;;;;;;;;;;5019993;28;20462;-94
2021/04/03 00:05:22;;;;;;;11.63;10.07;;;;;;;;;;5018808;28;20465;-93
2021/04/03 00:07:49;;;;;;;12.90;11.20;;;;;;;;;;5021345;28;20459;-92
2021/04/03 00:10:17;;;;;;;12.13;10.93;;;;;;;;;;5017182;28;20532;-93
2021/04/03 00:12:43;;;;;;;12.87;9.93;;;;;;;;;;5020945;28;20457;-93
2021/04/03 00:15:10;;;;;;;18.30;10.03;;;;;;;;;;5021423;28;20443;-93
2021/04/03 00:17:37;;;;;;;12.00;10.70;;;;;;;;;;5023416;28;20477;-93
2021/04/03 00:20:04;;;;;;;12.17;10.87;;;;;;;;;;5024706;28;20504;-93
2021/04/03 00:22:30;;;;;;;12.10;10.90;;;;;;;;;;5021122;28;20460;-93
2021/04/03 00:24:56;;;;;;;13.67;10.20;;;;;;;;;;5024710;28;20516;-93
2021/04/03 00:27:22;;;;;;;11.63;10.53;;;;;;;;;;5022204;28;20465;-93
2021/04/03 00:29:48;;;;;;;12.93;11.67;;;;;;;;;;5025784;28;20931;-93
2021/04/03 00:32:14;;;;;;;14.07;12.67;;;;;;;;;;5024683;28;20463;-92
2021/04/03 00:34:41;;;;;;;17.10;13.80;;;;;;;;;;5025062;28;20454;-93
2021/04/03 00:37:07;;;;;;;18.30;14.23;;;;;;;;;;5036779;28;20427;-94
2021/04/03 00:39:33;;;;;;;14.83;12.13;;;;;;;;;;5033518;28;20921;-93
2021/04/03 00:41:59;;;;;;;18.07;15.93;;;;;;;;;;5023554;28;20464;-94
2021/04/03 00:44:25;;;;;;;16.67;14.87;;;;;;;;;;5022425;28;20460;-92
2021/04/03 00:46:51;;;;;;;15.67;13.67;;;;;;;;;;5025528;28;20461;-93
2021/04/03 00:49:17;;;;;;;15.60;12.77;;;;;;;;;;5020340;28;20484;-93
2021/04/03 00:51:44;;;;;;;16.83;14.80;;;;;;;;;;5023738;28;21056;-93
2021/04/03 00:54:10;;;;;;;16.90;14.13;;;;;;;;;;5021249;28;20459;-93
2021/04/03 00:56:36;;;;;;;17.10;14.23;;;;;;;;;;5022506;28;20501;-93
2021/04/03 00:59:02;;;;;;;16.77;14.23;;;;;;;;;;5023621;28;20521;-93
2021/04/03 01:01:28;;;;;;;12.53;11.23;;;;;;;;;;5020075;28;20546;-93
2021/04/03 01:03:54;;;;;;;14.67;13.17;;;;;;;;;;5024378;28;20447;-92
2021/04/03 01:06:20;;;;;;;13.03;11.63;;;;;;;;;;5021888;28;20970;-93
2021/04/03 01:08:47;;;;;;;12.40;11.10;;;;;;;;;;5024561;28;20465;-93
2021/04/03 01:11:13;;;;;;;14.30;11.40;;;;;;;;;;5021626;28;20471;-93
2021/04/03 01:13:53;;;;;;;13.73;12.10;;;;;;;;;;5024424;28;20446;-92
2021/04/03 01:16:23;;;;;;;13.60;12.20;;;;;;;;;;5025308;28;20486;-92
2021/04/03 01:18:56;;;;;;;13.20;10.60;;;;;;;;;;5021595;28;20459;-92
2021/04/03 01:21:26;;;;;;;15.37;12.27;;;;;;;;;;5023615;28;20498;-93
2021/04/03 01:24:01;;;;;;;14.17;12.67;;;;;;;;;;5021651;28;20497;-94
2021/04/03 01:26:42;;;;;;;15.87;14.13;;;;;;;;;;5023565;28;20463;-92
2021/04/03 01:29:10;;;;;;;13.13;11.83;;;;;;;;;;4997615;28;20530;-92
2021/04/03 01:31:37;;;;;;;15.80;13.77;;;;;;;;;;5022042;28;20469;-93
2021/04/03 01:34:04;;;;;;;14.20;12.73;;;;;;;;;;5018603;28;20459;-93
2021/04/03 01:36:32;;;;;;;14.53;13.00;;;;;;;;;;5022319;28;20460;-93
2021/04/03 01:39:00;;;;;;;14.57;12.90;;;;;;;;;;5020559;28;20498;-92
2021/04/03 01:41:28;;;;;;;18.30;14.50;;;;;;;;;;5023567;28;20496;-92
2021/04/03 01:43:56;;;;;;;17.37;15.00;;;;;;;;;;5024400;28;20455;-93
2021/04/03 01:46:22;;;;;;;16.63;14.80;;;;;;;;;;5019471;28;20470;-93
2021/04/03 01:48:50;;;;;;;16.03;14.33;;;;;;;;;;5022222;28;20454;-94
2021/04/03 01:51:17;;;;;;;16.20;14.50;;;;;;;;;;5018908;28;20493;-93
2021/04/03 01:53:43;;;;;;;18.33;13.63;;;;;;;;;;5022367;28;20450;-92
2021/04/03 01:56:10;;;;;;;16.10;14.07;;;;;;;;;;5019647;28;20470;-93
2021/04/03 01:58:36;;;;;;;15.20;13.70;;;;;;;;;;5015049;28;20452;-93
2021/04/03 02:01:03;;;;;;;18.30;12.60;;;;;;;;;;5021833;28;20529;-92
2021/04/03 02:03:30;;;;;;;12.53;11.23;;;;;;;;;;5023785;28;20458;-92
2021/04/03 02:05:58;;;;;;;13.23;11.40;;;;;;;;;;5023824;28;20458;-93
2021/04/03 02:08:24;;;;;;;14.87;13.30;;;;;;;;;;5018958;28;20462;-93
2021/04/03 02:10:50;;;;;;;13.57;12.17;;;;;;;;;;5029816;28;20448;-93
2021/04/03 02:13:16;;;;;;;14.77;13.27;;;;;;;;;;5017644;28;20460;-93
2021/04/03 02:15:43;;;;;;;30.20;13.93;;;;;;;;;;5022255;28;20552;-93
2021/04/03 02:18:09;;;;;;;14.83;13.23;;;;;;;;;;5018152;28;20483;-93
2021/04/03 02:20:35;;;;;;;17.40;13.57;;;;;;;;;;5023663;28;20526;-93
2021/04/03 02:23:02;;;;;;;14.13;12.63;;;;;;;;;;5023037;28;20459;-93
2021/04/03 02:25:28;;;;;;;16.03;13.03;;;;;;;;;;5020045;28;20459;-93
2021/04/03 02:27:54;;;;;;;14.70;13.13;;;;;;;;;;5020744;28;20465;-94
2021/04/03 02:30:23;;;;;;;16.20;14.60;;;;;;;;;;5019805;28;20454;-92
2021/04/03 02:32:50;;;;;;;17.87;14.37;;;;;;;;;;5016310;28;20461;-93
2021/04/03 02:35:17;;;;;;;17.37;14.53;;;;;;;;;;5020963;28;20492;-93
2021/04/03 02:37:43;;;;;;;15.57;13.60;;;;;;;;;;5022813;28;20466;-94
2021/04/03 02:40:12;;;;;;;16.77;15.00;;;;;;;;;;5019370;28;20489;-93
2021/04/03 02:42:40;;;;;;;17.07;15.17;;;;;;;;;;5020281;28;20460;-94
2021/04/03 02:45:09;;;;;;;18.13;16.07;;;;;;;;;;5014517;28;20458;-94
2021/04/03 02:47:40;;;;;;;18.30;15.97;;;;;;;;;;5018208;28;20462;-92
2021/04/03 02:50:07;;;;;;;16.13;14.43;;;;;;;;;;5022210;28;20449;-92
2021/04/03 02:52:35;;;;;;;16.90;14.00;;;;;;;;;;5025104;28;20462;-94
2021/04/03 02:55:01;;;;;;;17.20;14.60;;;;;;;;;;5023629;28;20510;-94
2021/04/03 02:57:29;;;;;;;16.30;14.63;;;;;;;;;;5019136;28;20460;-93
2021/04/03 02:59:55;;;;;;;15.40;13.53;;;;;;;;;;5021886;28;20445;-94
2021/04/03 03:02:23;;;;;;;16.33;14.20;;;;;;;;;;5021052;28;20469;-93
2021/04/03 03:04:50;;;;;;;17.10;15.30;;;;;;;;;;5019833;28;20504;-94
2021/04/03 03:07:16;;;;;;;15.77;14.07;;;;;;;;;;5021446;28;20461;-94
2021/04/03 03:09:44;;;;;;;17.50;14.00;;;;;;;;;;5020460;28;20460;-94
2021/04/03 03:12:13;;;;;;;17.30;14.40;;;;;;;;;;5023361;28;20481;-94
2021/04/03 03:14:41;;;;;;;16.73;14.70;;;;;;;;;;5023823;28;20475;-94
2021/04/03 03:17:08;;;;;;;19.50;16.20;;;;;;;;;;5020843;28;20504;-94
2021/04/03 03:19:35;;;;;;;18.33;16.30;;;;;;;;;;5024099;28;20459;-94
2021/04/03 03:22:01;;;;;;;14.80;13.20;;;;;;;;;;5035000;28;20518;-93
2021/04/03 03:24:27;;;;;;;17.37;14.90;;;;;;;;;;5029837;28;20515;-94
2021/04/03 03:26:53;;;;;;;18.87;16.27;;;;;;;;;;5027447;28;20469;-93
2021/04/03 03:29:20;;;;;;;16.37;14.67;;;;;;;;;;5022477;28;20454;-94
2021/04/03 03:31:47;;;;;;;17.20;15.40;;;;;;;;;;5018960;28;20471;-93
2021/04/03 03:34:13;;;;;;;17.40;15.50;;;;;;;;;;5023244;28;20450;-93
2021/04/03 03:36:40;;;;;;;16.40;14.67;;;;;;;;;;5020541;28;20455;-93
2021/04/03 03:39:06;;;;;;;18.50;14.63;;;;;;;;;;5020396;28;20450;-93
2021/04/03 03:41:33;;;;;;;17.63;14.83;;;;;;;;;;5019548;28;21081;-93
2021/04/03 03:43:59;;;;;;;19.70;16.70;;;;;;;;;;5016373;28;20473;-93
2021/04/03 03:46:25;;;;;;;18.83;14.67;;;;;;;;;;5019767;28;20520;-93
2021/04/03 03:48:52;;;;;;;21.70;14.37;;;;;;;;;;5016724;28;20459;-94
2021/04/03 03:51:18;;;;;;;19.43;16.77;;;;;;;;;;5020516;28;20455;-93
2021/04/03 03:53:44;;;;;;;16.53;14.27;;;;;;;;;;5021557;28;20463;-92
2021/04/03 03:56:10;;;;;;;22.03;16.07;;;;;;;;;;5018292;28;20460;-93
2021/04/03 03:58:36;;;;;;;18.90;14.30;;;;;;;;;;5021961;28;20483;-92
2021/04/03 04:01:02;;;;;;;16.87;15.07;;;;;;;;;;5018931;28;21007;-94
2021/04/03 04:03:28;;;;;;;20.00;15.87;;;;;;;;;;5022578;28;20473;-93
2021/04/03 04:05:55;;;;;;;18.40;16.43;;;;;;;;;;5011050;28;20497;-93
2021/04/03 04:08:21;;;;;;;23.70;17.60;;;;;;;;;;5019523;28;20456;-93
2021/04/03 04:10:47;;;;;;;20.40;16.53;;;;;;;;;;5020821;28;20450;-94
2021/04/03 04:13:13;;;;;;;19.87;17.77;;;;;;;;;;5016894;28;20473;-93
2021/04/03 04:15:39;;;;;;;18.50;15.97;;;;;;;;;;5019873;28;20461;-93
2021/04/03 04:18:05;;;;;;;15.37;13.47;;;;;;;;;;5015660;28;20566;-93
2021/04/03 04:20:32;;;;;;;18.50;15.57;;;;;;;;;;5020116;28;20561;-93
2021/04/03 04:22:59;;;;;;;19.67;15.80;;;;;;;;;;5017141;28;20462;-93
2021/04/03 04:25:25;;;;;;;24.80;18.20;;;;;;;;;;5020909;28;20521;-93
2021/04/03 04:27:51;;;;;;;17.33;15.53;;;;;;;;;;5021431;28;20825;-93
2021/04/03 04:30:17;;;;;;;21.20;18.77;;;;;;;;;;5018031;28;20485;-93
2021/04/03 04:32:44;;;;;;;24.00;19.80;;;;;;;;;;5024500;28;20453;-94
2021/04/03 04:35:11;;;;;;;27.47;21.00;;;;;;;;;;5018231;28;20463;-93
2021/04/03 04:37:37;;;;;;;26.53;21.47;;;;;;;;;;5019765;28;20467;-93
2021/04/03 04:40:05;;;;;;;24.03;18.80;;;;;;;;;;5019108;28;20455;-93
2021/04/03 04:42:31;;;;;;;18.73;16.63;;;;;;;;;;5021635;28;20466;-93
2021/04/03 04:44:57;;;;;;;21.67;17.20;;;;;;;;;;5019126;28;20486;-92
2021/04/03 04:47:23;;;;;;;22.40;18.03;;;;;;;;;;5019810;28;20513;-92
2021/04/03 04:49:50;;;;;;;25.47;20.03;;;;;;;;;;5018728;28;20456;-93
2021/04/03 04:52:16;;;;;;;24.17;21.73;;;;;;;;;;5018221;28;20471;-93
2021/04/03 04:54:42;;;;;;;24.10;19.80;;;;;;;;;;5020841;28;20508;-93
2021/04/03 04:57:09;;;;;;;22.03;19.27;;;;;;;;;;5018256;28;20532;-93
2021/04/03 04:59:35;;;;;;;21.30;18.57;;;;;;;;;;5021382;28;20453;-94
2021/04/03 05:02:01;;;;;;;25.33;19.47;;;;;;;;;;5019537;28;20502;-93
2021/04/03 05:04:27;;;;;;;20.60;17.90;;;;;;;;;;5033129;28;20447;-93
2021/04/03 05:06:53;;;;;;;20.00;17.73;;;;;;;;;;5022919;28;20588;-94
2021/04/03 05:09:19;;;;;;;24.93;21.30;;;;;;;;;;5026775;28;20451;-94
2021/04/03 05:11:45;;;;;;;27.20;19.83;;;;;;;;;;5027417;28;20549;-94
2021/04/03 05:14:12;;;;;;;31.63;22.80;;;;;;;;;;5021277;28;20546;-93
2021/04/03 05:16:38;;;;;;;34.07;24.33;;;;;;;;;;5018925;28;20487;-94
2021/04/03 05:19:04;;;;;;;32.00;24.77;;;;;;;;;;5020485;28;20950;-94
2021/04/03 05:21:30;;;;;;;29.23;22.80;;;;;;;;;;5023761;28;20520;-94
2021/04/03 05:23:56;;;;;;;33.80;25.80;;;;;;;;;;5020439;28;20457;-95
2021/04/03 05:26:22;;;;;;;33.30;25.20;;;;;;;;;;5022353;28;20475;-93
2021/04/03 05:28:48;;;;;;;31.00;24.67;;;;;;;;;;5022984;28;20545;-94
2021/04/03 05:31:20;;;;;;;29.43;23.83;;;;;;;;;;5021274;28;20454;-94
2021/04/03 05:33:46;;;;;;;33.10;24.00;;;;;;;;;;5024493;28;20459;-93
2021/04/03 05:36:12;;;;;;;28.23;23.40;;;;;;;;;;5025596;28;20472;-94
2021/04/03 05:38:37;;;;;;;22.87;19.70;;;;;;;;;;5020913;28;20467;-93
2021/04/03 05:41:03;;;;;;;27.90;22.67;;;;;;;;;;5023104;28;21004;-93
2021/04/03 05:43:31;;;;;;;28.30;23.27;;;;;;;;;;5025181;28;20455;-93
2021/04/03 05:45:57;;;;;;;26.00;22.17;;;;;;;;;;5020801;28;20475;-94
2021/04/03 05:48:24;;;;;;;27.77;20.77;;;;;;;;;;5018766;28;20483;-94
2021/04/03 05:50:51;;;;;;;34.80;26.77;;;;;;;;;;5022035;28;20460;-94
2021/04/03 05:53:17;;;;;;;30.67;25.20;;;;;;;;;;5016661;28;20472;-94
2021/04/03 05:55:43;;;;;;;30.73;25.10;;;;;;;;;;5020018;28;20837;-93
2021/04/03 05:58:09;;;;;;;29.67;24.67;;;;;;;;;;5016317;28;20976;-93
2021/04/03 06:00:35;;;;;;;33.63;27.10;;;;;;;;;;5023662;28;21393;-93
2021/04/03 06:03:01;;;;;;;31.17;26.33;;;;;;;;;;5023124;28;20471;-92
2021/04/03 06:05:28;;;;;;;29.87;24.57;;;;;;;;;;5032309;28;20515;-94
2021/04/03 06:07:54;;;;;;;26.47;20.83;;;;;;;;;;5023238;28;20455;-94
2021/04/03 06:10:20;;;;;;;24.07;20.47;;;;;;;;;;5017379;28;20462;-94
2021/04/03 06:12:47;;;;;;;24.60;20.73;;;;;;;;;;5021448;28;20456;-94
2021/04/03 06:15:15;;;;;;;25.00;21.50;;;;;;;;;;5018479;28;21044;-94
2021/04/03 06:17:41;;;;;;;17.00;12.80;;;;;;;;;;5016990;28;20487;-95
2021/04/03 06:20:08;;;;;;;12.60;11.23;;;;;;;;;;5011598;28;20463;-95
2021/04/03 06:22:45;;;;;;;12.57;11.30;;;;;;;;;;5023797;28;20448;-96
2021/04/03 06:25:11;;;;;;;12.27;10.97;;;;;;;;;;5032794;28;20455;-96
2021/04/03 06:27:37;;;;;;;12.67;11.20;;;;;;;;;;5029153;28;20490;-96
2021/04/03 06:30:16;;;;;;;13.87;11.37;;;;;;;;;;5022775;28;20448;-96
2021/04/03 06:32:44;;;;;;;12.47;11.17;;;;;;;;;;5024774;28;20443;-94
2021/04/03 06:35:13;;;;;;;12.70;11.40;;;;;;;;;;5001379;28;20462;-93
2021/04/03 06:37:39;;;;;;;13.10;11.80;;;;;;;;;;5019823;28;20468;-93
2021/04/03 06:40:07;;;;;;;11.97;10.70;;;;;;;;;;5020472;28;20456;-93
2021/04/03 06:42:43;;;;;;;13.80;12.23;;;;;;;;;;5022880;28;20474;-94
2021/04/03 06:45:23;;;;;;;15.80;12.70;;;;;;;;;;5024888;28;20485;-96
2021/04/03 06:47:51;;;;;;;16.43;13.37;;;;;;;;;;5020108;28;20471;-96
2021/04/03 06:50:30;;;;;;;14.90;13.40;;;;;;;;;;5022713;28;20456;-96
2021/04/03 06:52:57;;;;;;;17.63;15.50;;;;;;;;;;5023286;28;20476;-96
2021/04/03 06:55:24;;;;;;;17.00;15.30;;;;;;;;;;5015520;28;20460;-93
2021/04/03 06:57:53;;;;;;;17.70;14.50;;;;;;;;;;5013506;28;20467;-95
2021/04/03 07:00:20;;;;;;;16.57;14.97;;;;;;;;;;5001404;28;20448;-95
2021/04/03 07:02:56;;;;;;;17.33;15.53;;;;;;;;;;5026627;28;20507;-96
2021/04/03 07:05:24;;;;;;;15.27;13.77;;;;;;;;;;5028615;28;20463;-95
2021/04/03 07:07:50;;;;;;;14.97;13.37;;;;;;;;;;5023827;28;20456;-94
2021/04/03 07:10:16;;;;;;;14.90;12.53;;;;;;;;;;5022279;28;20456;-95
2021/04/03 07:12:43;;;;;;;13.10;11.90;;;;;;;;;;5024332;28;20827;-94
2021/04/03 07:15:10;;;;;;;14.70;12.97;;;;;;;;;;5029625;28;20452;-96
2021/04/03 07:17:39;;;;;;;18.07;13.70;;;;;;;;;;5033305;28;20537;-96
2021/04/03 07:20:08;;;;;;;15.10;13.60;;;;;;;;;;5012840;28;20452;-96
2021/04/03 07:22:34;;;;;;;14.20;12.50;;;;;;;;;;5020275;28;20483;-96
2021/04/03 07:25:00;;;;;;;10.37;9.33;;;;;;;;;;5022463;28;20452;-96
2021/04/03 07:27:27;;;;;;;11.03;9.80;;;;;;;;;;5005194;28;20459;-96
2021/04/03 07:29:54;;;;;;;11.93;10.87;;;;;;;;;;5022832;28;20446;-96
2021/04/03 07:32:33;;;;;;;11.23;10.13;;;;;;;;;;5018141;28;20474;-96
2021/04/03 07:34:59;;;;;;;15.13;13.50;;;;;;;;;;5013814;28;20459;-93
2021/04/03 07:37:32;;;;;;;14.63;13.23;;;;;;;;;;5024925;28;20462;-94
2021/04/03 07:39:58;;;;;;;14.77;12.30;;;;;;;;;;5022455;28;20451;-94
2021/04/03 07:42:34;;;;;;;13.17;11.93;;;;;;;;;;5018652;28;20499;-92
2021/04/03 07:45:01;;;;;;;11.67;9.53;;;;;;;;;;5020417;28;20980;-94
2021/04/03 07:47:27;;;;;;;11.70;10.13;;;;;;;;;;5017949;28;20821;-96
2021/04/03 07:49:54;;;;;;;9.60;8.70;;;;;;;;;;5019852;28;20456;-95
2021/04/03 07:52:35;;;;;;;9.63;8.67;;;;;;;;;;5015886;28;20463;-95
2021/04/03 07:55:28;;;;;;;10.10;9.10;;;;;;;;;;5021096;28;20456;-95
2021/04/03 07:58:16;;;;;;;10.63;8.83;;;;;;;;;;5026741;28;20452;-94
2021/04/03 08:00:43;;;;;;;9.80;8.90;;;;;;;;;;5013266;28;20500;-94
2021/04/03 08:03:09;;;;;;;11.60;8.13;;;;;;;;;;5017500;28;20459;-95
2021/04/03 08:05:35;;;;;;;9.43;8.20;;;;;;;;;;5016518;28;20496;-94
2021/04/03 08:08:01;;;;;;;9.67;8.77;;;;;;;;;;5016691;28;20453;-94
2021/04/03 08:10:27;;;;;;;8.70;7.90;;;;;;;;;;5020678;28;20479;-93
2021/04/03 08:12:54;;;;;;;9.90;8.13;;;;;;;;;;5017233;28;20520;-94
2021/04/03 08:15:21;;;;;;;9.20;8.30;;;;;;;;;;5023080;28;20456;-95
2021/04/03 08:17:52;;;;;;;9.80;8.83;;;;;;;;;;5023709;28;20472;-96
2021/04/03 08:20:19;;;;;;;8.77;7.97;;;;;;;;;;5015931;28;20462;-96
2021/04/03 08:22:57;;;;;;;10.10;8.03;;;;;;;;;;5023042;28;20453;-93
2021/04/03 08:25:23;;;;;;;9.07;8.10;;;;;;;;;;5020315;28;20452;-94
2021/04/03 08:27:49;;;;;;;9.80;8.10;;;;;;;;;;5022305;28;20469;-94
2021/04/03 08:30:22;;;;;;;8.87;7.97;;;;;;;;;;5019460;28;20463;-93
2021/04/03 08:33:08;;;;;;;8.63;7.83;;;;;;;;;;5021526;28;20452;-93
2021/04/03 08:35:35;;;;;;;8.73;7.80;;;;;;;;;;5010995;28;20673;-93
2021/04/03 08:38:19;;;;;;;13.33;7.37;;;;;;;;;;5020575;28;20465;-92
2021/04/03 08:40:46;;;;;;;8.97;7.20;;;;;;;;;;5021413;28;20470;-94
2021/04/03 08:43:19;;;;;;;8.03;7.20;;;;;;;;;;5032242;28;20459;-93
2021/04/03 08:45:45;;;;;;;7.67;6.97;;;;;;;;;;5019425;28;20510;-92
2021/04/03 08:48:13;;;;;;;8.23;7.17;;;;;;;;;;5018711;28;20452;-95
2021/04/03 08:50:40;;;;;;;7.37;6.70;;;;;;;;;;5015609;28;20862;-93
2021/04/03 08:53:07;;;;;;;7.70;6.90;;;;;;;;;;5024590;28;20451;-95
2021/04/03 08:55:33;;;;;;;8.17;7.00;;;;;;;;;;4990037;28;21004;-93
2021/04/03 08:58:01;;;;;;;10.13;7.33;;;;;;;;;;5023203;28;20490;-92
2021/04/03 09:00:27;;;;;;;7.40;6.70;;;;;;;;;;5021805;28;20455;-91
2021/04/03 09:02:53;;;;;;;9.27;8.37;;;;;;;;;;5013311;28;20502;-95
2021/04/03 09:05:20;;;;;;;8.57;7.07;;;;;;;;;;5016471;28;20452;-93
2021/04/03 09:07:47;;;;;;;7.10;6.50;;;;;;;;;;5016835;28;20811;-95
2021/04/03 09:10:14;;;;;;;7.97;7.17;;;;;;;;;;5029755;28;20452;-96
2021/04/03 09:12:43;;;;;;;7.20;6.50;;;;;;;;;;5023235;28;20538;-96
2021/04/03 09:15:10;;;;;;;7.23;6.60;;;;;;;;;;5018656;28;20902;-96
2021/04/03 09:17:45;;;;;;;8.23;6.90;;;;;;;;;;5028710;28;20463;-94
2021/04/03 09:20:13;;;;;;;6.93;6.33;;;;;;;;;;5027238;28;20496;-94
2021/04/03 09:22:42;;;;;;;6.83;6.13;;;;;;;;;;5020895;28;20498;-94
2021/04/03 09:25:09;;;;;;;7.40;6.70;;;;;;;;;;5023924;28;20459;-95
2021/04/03 09:27:41;;;;;;;7.67;6.97;;;;;;;;;;5027557;28;20474;-95
2021/04/03 09:30:09;;;;;;;7.80;6.60;;;;;;;;;;5030168;28;20447;-94
2021/04/03 09:32:42;;;;;;;8.13;6.70;;;;;;;;;;5028616;28;20465;-92
2021/04/03 09:35:08;;;;;;;7.37;6.70;;;;;;;;;;5022628;28;20460;-94
2021/04/03 09:37:37;;;;;;;8.17;6.13;;;;;;;;;;5018919;28;20459;-95
2021/04/03 09:40:06;;;;;;;7.73;6.40;;;;;;;;;;5025207;28;20448;-92
2021/04/03 09:42:32;;;;;;;6.50;6.00;;;;;;;;;;5021616;28;20579;-93
2021/04/03 09:44:59;;;;;;;9.03;6.60;;;;;;;;;;5023761;28;20448;-93
2021/04/03 09:47:25;;;;;;;8.33;7.50;;;;;;;;;;5018124;28;20483;-92
2021/04/03 09:49:52;;;;;;;7.93;7.13;;;;;;;;;;5018288;28;20468;-92
2021/04/03 09:52:18;;;;;;;7.67;6.97;;;;;;;;;;5023463;28;20462;-95
2021/04/03 09:54:44;;;;;;;7.43;6.73;;;;;;;;;;5018189;28;20452;-95
2021/04/03 09:57:12;;;;;;;7.90;6.93;;;;;;;;;;5023811;28;20479;-94
2021/04/03 09:59:40;;;;;;;9.23;7.00;;;;;;;;;;5022658;28;20470;-94
2021/04/03 10:02:06;;;;;;;7.63;6.93;;;;;;;;;;5031752;28;20482;-94
2021/04/03 10:04:32;;;;;;;8.67;6.60;;;;;;;;;;5024645;28;20459;-91
2021/04/03 10:06:59;;;;;;;7.37;6.20;;;;;;;;;;5025934;28;20455;-93
2021/04/03 10:09:25;;;;;;;6.53;5.93;;;;;;;;;;5022824;28;20463;-90
2021/04/03 10:11:52;;;;;;;6.73;6.03;;;;;;;;;;5029931;28;21034;-94
2021/04/03 10:14:19;;;;;;;7.97;7.10;;;;;;;;;;5023424;28;20455;-92
2021/04/03 10:16:45;;;;;;;8.17;7.37;;;;;;;;;;5022565;28;20487;-93
2021/04/03 10:19:11;;;;;;;7.87;7.07;;;;;;;;;;5018730;28;20466;-94
2021/04/03 10:21:37;;;;;;;8.10;7.27;;;;;;;;;;5019429;28;20490;-94
2021/04/03 10:24:04;;;;;;;7.30;6.70;;;;;;;;;;5017674;28;20460;-92
2021/04/03 10:26:30;;;;;;;8.00;7.20;;;;;;;;;;5022429;28;21120;-94
2021/04/03 10:28:56;;;;;;;7.47;6.80;;;;;;;;;;5019538;28;20957;-95
2021/04/03 10:31:23;;;;;;;7.50;6.77;;;;;;;;;;5019693;28;20475;-93
2021/04/03 10:33:49;;;;;;;7.60;7.00;;;;;;;;;;5023334;28;21005;-94
2021/04/03 10:36:16;;;;;;;7.27;6.67;;;;;;;;;;5018012;28;20458;-94
2021/04/03 10:38:43;;;;;;;8.27;7.20;;;;;;;;;;5019083;28;20483;-94
2021/04/03 10:41:09;;;;;;;8.90;7.50;;;;;;;;;;5024800;28;20495;-94
2021/04/03 10:43:35;;;;;;;8.17;6.70;;;;;;;;;;5021208;28;20458;-93
2021/04/03 10:46:01;;;;;;;7.67;7.03;;;;;;;;;;5020998;28;20478;-94
2021/04/03 10:48:28;;;;;;;6.90;6.30;;;;;;;;;;5022951;28;20444;-93
2021/04/03 10:50:54;;;;;;;8.27;6.60;;;;;;;;;;5021385;28;20498;-94
2021/04/03 10:53:20;;;;;;;7.30;6.60;;;;;;;;;;5026373;28;20447;-94
2021/04/03 10:55:46;;;;;;;8.37;7.53;;;;;;;;;;5023382;28;20457;-96
2021/04/03 10:58:13;;;;;;;9.17;8.27;;;;;;;;;;5025838;28;20467;-96
2021/04/03 11:00:39;;;;;;;8.80;8.00;;;;;;;;;;5002266;28;20538;-94
2021/04/03 11:03:05;;;;;;;7.47;6.77;;;;;;;;;;5003611;28;20448;-95
2021/04/03 11:05:35;;;;;;;8.00;7.30;;;;;;;;;;5023572;28;20497;-95
2021/04/03 11:08:03;;;;;;;8.00;7.20;;;;;;;;;;5026796;28;20454;-93
2021/04/03 11:10:29;;;;;;;10.90;7.17;;;;;;;;;;5025424;28;20456;-94
2021/04/03 11:12:55;;;;;;;8.80;8.03;;;;;;;;;;5023762;28;20462;-96
2021/04/03 11:15:21;;;;;;;8.90;8.00;;;;;;;;;;5028735;28;20461;-95
2021/04/03 11:17:47;;;;;;;9.37;8.47;;;;;;;;;;5033621;28;20467;-94
2021/04/03 11:20:13;;;;;;;9.43;8.63;;;;;;;;;;5030496;28;20543;-92
2021/04/03 11:22:41;;;;;;;8.90;8.00;;;;;;;;;;5023724;28;20501;-94
2021/04/03 11:25:10;;;;;;;9.77;8.77;;;;;;;;;;5024689;28;20448;-96
2021/04/03 11:27:36;;;;;;;11.30;9.10;;;;;;;;;;5017309;28;20467;-96
2021/04/03 11:30:13;;;;;;;9.33;8.43;;;;;;;;;;5014371;28;20473;-93
2021/04/03 11:32:39;;;;;;;12.50;8.90;;;;;;;;;;5018277;28;20463;-92
2021/04/03 11:35:06;;;;;;;9.97;8.97;;;;;;;;;;5028121;28;20505;-92
2021/04/03 11:37:32;;;;;;;6.00;4.97;;;;;;;;;;5025552;28;21699;-93
2021/04/03 11:40:00;;;;;;;7.63;6.77;;;;;;;;;;5018248;28;20450;-96
2021/04/03 11:42:27;;;;;;;7.83;6.83;;;;;;;;;;5025921;28;20487;-96
2021/04/03 11:44:53;;;;;;;7.87;7.07;;;;;;;;;;5036302;28;20529;-96
2021/04/03 11:47:19;;;;;;;8.03;6.30;;;;;;;;;;5032491;28;20461;-93
2021/04/03 11:49:46;;;;;;;8.47;6.30;;;;;;;;;;5026063;28;20455;-93
2021/04/03 11:52:12;;;;;;;8.40;7.47;;;;;;;;;;5023211;28;20451;-96
2021/04/03 11:54:41;;;;;;;7.63;6.73;;;;;;;;;;5029039;28;20463;-96
2021/04/03 11:57:09;;;;;;;8.93;7.73;;;;;;;;;;5018483;28;20459;-96
2021/04/03 11:59:41;;;;;;;10.27;7.73;;;;;;;;;;5031968;28;20487;-96
2021/04/03 12:02:17;;;;;;;6.67;6.07;;;;;;;;;;5031543;28;20463;-96
2021/04/03 12:04:43;;;;;;;6.07;5.60;;;;;;;;;;5030734;28;20485;-94
2021/04/03 12:07:16;;;;;;;9.20;6.87;;;;;;;;;;5026191;28;20448;-96
2021/04/03 12:09:43;;;;;;;7.93;7.13;;;;;;;;;;5033881;28;20437;-96
2021/04/03 12:12:10;;;;;;;7.00;6.40;;;;;;;;;;5030449;28;20502;-96
2021/04/03 12:14:36;;;;;;;8.10;7.30;;;;;;;;;;5001223;28;20459;-96
2021/04/03 12:17:03;;;;;;;7.90;7.20;;;;;;;;;;5011638;28;20549;-96
2021/04/03 12:19:29;;;;;;;10.50;8.33;;;;;;;;;;5019884;28;20457;-96
2021/04/03 12:21:55;;;;;;;11.63;8.47;;;;;;;;;;5018925;28;20502;-96
2021/04/03 12:24:21;;;;;;;10.20;9.20;;;;;;;;;;5019594;28;20930;-96
2021/04/03 12:26:47;;;;;;;11.73;9.50;;;;;;;;;;5024793;28;20435;-96
2021/04/03 12:29:15;;;;;;;11.03;9.30;;;;;;;;;;5025249;28;20466;-96
2021/04/03 12:31:41;;;;;;;12.37;9.20;;;;;;;;;;5015985;28;20470;-94
2021/04/03 12:34:07;;;;;;;11.80;9.40;;;;;;;;;;5026192;28;20468;-94
2021/04/03 12:36:33;;;;;;;14.43;9.27;;;;;;;;;;5019660;28;20983;-96
2021/04/03 12:39:35;;;;;;;15.50;12.63;;;;;;;;;;5030890;28;20505;-96
2021/04/03 12:42:01;;;;;;;14.20;12.27;;;;;;;;;;5084684;23;20494;-96
2021/04/03 12:44:29;;;;;;;12.30;10.13;;;;;;;;;;5046947;23;20487;-96
2021/04/03 12:46:55;;;;;;;16.47;12.53;;;;;;;;;;5004656;28;20447;-96
2021/04/03 12:49:21;;;;;;;15.30;10.37;;;;;;;;;;4997320;28;20459;-94
2021/04/03 12:51:47;;;;;;;12.33;11.03;;;;;;;;;;5018728;28;20462;-94
2021/04/03 12:54:13;;;;;;;13.63;10.37;;;;;;;;;;5015630;28;20462;-95
2021/04/03 12:56:39;;;;;;;10.83;9.27;;;;;;;;;;5020469;28;20470;-95
2021/04/03 12:59:11;;;;;;;11.93;10.40;;;;;;;;;;5020688;28;20449;-96
2021/04/03 13:04:40;;;;;;;7.60;6.90;;;;;;;;;;4970393;28;20449;-96
2021/04/03 13:07:07;;;;;;;10.20;7.73;;;;;;;;;;5023774;28;20557;-95
2021/04/03 13:09:33;;;;;;;8.73;7.73;;;;;;;;;;5022126;28;20462;-95
2021/04/03 13:11:59;;;;;;;9.57;7.40;;;;;;;;;;5014600;28;20448;-96
2021/04/03 13:14:27;;;;;;;8.87;7.50;;;;;;;;;;5016009;28;20442;-95
2021/04/03 13:16:53;;;;;;;9.00;7.77;;;;;;;;;;5003424;28;20455;-93
2021/04/03 13:19:19;;;;;;;7.33;6.63;;;;;;;;;;5023336;28;20455;-94
2021/04/03 13:21:46;;;;;;;8.23;6.73;;;;;;;;;;5015596;28;20495;-94
2021/04/03 13:24:13;;;;;;;11.77;7.10;;;;;;;;;;5022401;28;20933;-93
2021/04/03 13:26:39;;;;;;;9.20;6.90;;;;;;;;;;5030120;28;20432;-92
2021/04/03 13:29:05;;;;;;;8.73;7.93;;;;;;;;;;5025092;28;20518;-94
2021/04/03 13:31:31;;;;;;;7.60;6.90;;;;;;;;;;5020851;28;20467;-92
2021/04/03 13:33:57;;;;;;;8.77;7.43;;;;;;;;;;5025542;28;20455;-96
2021/04/03 13:36:23;;;;;;;9.70;7.50;;;;;;;;;;5024667;28;20440;-96
2021/04/03 13:38:50;;;;;;;8.63;7.13;;;;;;;;;;5028643;28;20444;-96
2021/04/03 13:41:18;;;;;;;7.83;7.07;;;;;;;;;;5027092;28;20491;-96
2021/04/03 13:43:44;;;;;;;7.53;6.83;;;;;;;;;;5010862;28;20484;-96
2021/04/03 13:46:10;;;;;;;7.60;6.90;;;;;;;;;;5030221;28;20451;-94
2021/04/03 13:48:36;;;;;;;7.17;6.50;;;;;;;;;;5031451;28;20448;-95
2021/04/03 13:51:02;;;;;;;9.90;7.50;;;;;;;;;;5029745;28;20551;-95
2021/04/03 13:53:28;;;;;;;8.10;7.30;;;;;;;;;;5030962;28;20456;-94
2021/04/03 13:55:55;;;;;;;9.30;7.57;;;;;;;;;;5022230;28;20514;-95
2021/04/03 13:58:22;;;;;;;7.83;7.03;;;;;;;;;;5027233;28;20471;-96
2021/04/03 14:00:49;;;;;;;7.40;6.70;;;;;;;;;;5024074;28;20949;-96
2021/04/03 14:03:15;;;;;;;7.00;6.40;;;;;;;;;;5021921;28;20448;-95
2021/04/03 14:05:42;;;;;;;7.13;6.43;;;;;;;;;;5017382;28;20453;-94
2021/04/03 14:08:08;;;;;;;8.47;6.83;;;;;;;;;;5019486;28;20462;-94
2021/04/03 14:10:34;;;;;;;7.60;6.90;;;;;;;;;;5025029;28;20452;-94
2021/04/03 14:13:03;;;;;;;7.07;6.23;;;;;;;;;;5023499;28;20466;-95
2021/04/03 14:15:29;;;;;;;9.97;7.77;;;;;;;;;;5024010;28;20428;-95
2021/04/03 14:18:00;;;;;;;7.67;6.97;;;;;;;;;;5024597;28;20529;-96
2021/04/03 14:20:26;;;;;;;7.27;6.57;;;;;;;;;;5029449;28;20536;-95
2021/04/03 14:22:52;;;;;;;7.20;6.47;;;;;;;;;;5026118;28;20483;-94
2021/04/03 14:25:20;;;;;;;7.93;7.13;;;;;;;;;;5032963;28;20428;-96
2021/04/03 14:27:48;;;;;;;6.30;5.67;;;;;;;;;;5031639;28;20472;-96
2021/04/03 14:30:16;;;;;;;6.90;6.20;;;;;;;;;;5026773;28;20451;-95
2021/04/03 14:32:42;;;;;;;6.70;6.07;;;;;;;;;;5029517;28;20467;-95